createdAt,value
2018-04-29T00:00:09.965Z,100843.17
2018-04-29T00:02:35.760Z,100840.77
2018-04-29T00:05:01.544Z,100841.42
2018-04-29T00:07:27.337Z,100839.84
2018-04-29T00:09:53.115Z,100843.45
2018-04-29T00:12:18.867Z,100839.02
2018-04-29T00:14:44.652Z,100839.14
2018-04-29T00:17:10.412Z,100840.14
2018-04-29T00:19:36.179Z,100833.98
2018-04-29T00:22:01.927Z,100827.80
2018-04-29T00:24:27.984Z,100837.77
2018-04-29T00:26:53.768Z,100832.91
2018-04-29T00:29:19.519Z,100830.92
2018-04-29T00:31:45.291Z,100831.77
2018-04-29T00:34:11.047Z,100831.58
2018-04-29T00:36:36.819Z,100835.69
2018-04-29T00:39:02.596Z,100840.61
2018-04-29T00:41:28.604Z,100835.69
2018-04-29T00:43:54.379Z,100837.27
2018-04-29T00:46:20.156Z,100839.00
2018-04-29T00:48:45.960Z,100833.18
2018-04-29T00:51:11.696Z,100826.41
2018-04-29T00:53:37.469Z,100824.26
2018-04-29T00:56:03.232Z,100818.57
2018-04-29T00:58:28.988Z,100820.79
2018-04-29T01:00:54.752Z,100822.59
2018-04-29T01:03:20.820Z,100821.31
2018-04-29T01:05:46.575Z,100823.34
2018-04-29T01:08:12.613Z,100821.61
2018-04-29T01:10:38.393Z,100814.00
2018-04-29T01:13:04.151Z,100823.70
2018-04-29T01:15:29.948Z,100827.39
2018-04-29T01:17:55.711Z,100830.09
2018-04-29T01:20:21.486Z,100830.83
2018-04-29T01:22:47.266Z,100830.45
2018-04-29T01:25:13.035Z,100837.83
2018-04-29T01:27:38.847Z,100837.35
2018-04-29T01:30:04.603Z,100829.94
2018-04-29T01:32:30.708Z,100830.81
2018-04-29T01:34:56.468Z,100834.02
2018-04-29T01:37:22.297Z,100833.41
2018-04-29T01:39:48.065Z,100834.80
2018-04-29T01:42:13.799Z,100833.06
2018-04-29T01:44:39.565Z,100830.49
2018-04-29T01:47:05.343Z,100835.27
2018-04-29T01:49:31.108Z,100839.94
2018-04-29T01:51:56.891Z,100841.89
2018-04-29T01:54:22.648Z,100842.59
2018-04-29T01:56:48.488Z,100843.18
2018-04-29T01:59:14.249Z,100838.20
2018-04-29T02:01:40.029Z,100841.31
2018-04-29T02:04:05.783Z,100832.97
2018-04-29T02:06:31.543Z,100841.90
2018-04-29T02:08:57.298Z,100847.90
2018-04-29T02:11:23.080Z,100841.25
2018-04-29T02:13:48.872Z,100837.53
2018-04-29T02:16:14.636Z,100840.39
2018-04-29T02:18:40.518Z,100838.94
2018-04-29T02:21:06.278Z,100841.16
2018-04-29T02:23:32.047Z,100841.73
2018-04-29T02:25:57.796Z,100836.77
2018-04-29T02:28:23.563Z,100837.47
2018-04-29T02:30:49.318Z,100825.08
2018-04-29T02:33:15.104Z,100825.39
2018-04-29T02:35:40.859Z,100827.42
2018-04-29T02:38:06.636Z,100827.29
2018-04-29T02:40:32.395Z,100823.85
2018-04-29T02:42:58.198Z,100825.87
2018-04-29T02:45:23.949Z,100831.61
2018-04-29T02:47:49.728Z,100828.24
2018-04-29T02:50:15.480Z,100830.06
2018-04-29T02:52:41.549Z,100825.53
2018-04-29T02:55:07.310Z,100827.51
2018-04-29T02:57:33.147Z,100828.62
2018-04-29T02:59:58.923Z,100827.46
2018-04-29T03:02:24.719Z,100825.14
2018-04-29T03:04:50.899Z,100824.25
2018-04-29T03:07:16.685Z,100821.66
2018-04-29T03:09:42.440Z,100818.38
2018-04-29T03:12:08.204Z,100820.78
2018-04-29T03:14:33.991Z,100821.48
2018-04-29T03:16:59.926Z,100819.11
2018-04-29T03:19:25.702Z,100820.02
2018-04-29T03:21:51.447Z,100810.84
2018-04-29T03:24:17.238Z,100811.97
2018-04-29T03:26:42.983Z,100809.56
2018-04-29T03:29:08.756Z,100812.20
2018-04-29T03:31:34.507Z,100816.95
2018-04-29T03:34:00.292Z,100815.47
2018-04-29T03:36:26.040Z,100828.78
2018-04-29T03:38:51.791Z,100827.47
2018-04-29T03:41:17.562Z,100824.51
2018-04-29T03:43:43.325Z,100818.67
2018-04-29T03:46:09.084Z,100814.61
2018-04-29T03:48:34.863Z,100815.02
2018-04-29T03:51:00.626Z,100818.00
2018-04-29T03:53:26.390Z,100817.42
2018-04-29T03:55:52.408Z,100822.94
2018-04-29T03:58:30.387Z,100823.16
2018-04-29T04:01:08.504Z,100823.94
2018-04-29T04:06:41.197Z,100826.97
2018-04-29T04:09:06.992Z,100827.18
2018-04-29T04:11:32.756Z,100822.97
2018-04-29T04:13:58.491Z,100820.83
2018-04-29T04:16:24.262Z,100823.45
2018-04-29T04:18:50.132Z,100827.48
2018-04-29T04:21:15.879Z,100828.02
2018-04-29T04:23:41.725Z,100820.98
2018-04-29T04:26:07.448Z,100811.84
2018-04-29T04:28:33.397Z,100818.35
2018-04-29T04:30:59.147Z,100813.64
2018-04-29T04:33:24.923Z,100823.93
2018-04-29T04:35:50.672Z,100822.50
2018-04-29T04:38:16.438Z,100825.31
2018-04-29T04:40:42.235Z,100811.31
2018-04-29T04:43:07.983Z,100821.46
2018-04-29T04:45:33.889Z,100842.63
2018-04-29T04:47:59.692Z,100833.23
2018-04-29T04:50:25.491Z,100839.49
2018-04-29T04:52:51.255Z,100832.05
2018-04-29T04:55:17.044Z,100834.05
2018-04-29T04:57:42.811Z,100835.27
2018-04-29T05:00:08.579Z,100842.38
2018-04-29T05:02:34.329Z,100846.36
2018-04-29T05:05:00.120Z,100847.16
2018-04-29T05:07:25.898Z,100850.27
2018-04-29T05:09:51.670Z,100851.59
2018-04-29T05:12:17.415Z,100854.87
2018-04-29T05:14:43.196Z,100862.31
2018-04-29T05:17:08.950Z,100864.68
2018-04-29T05:19:34.731Z,100853.98
2018-04-29T05:22:00.485Z,100837.36
2018-04-29T05:24:26.283Z,100834.60
2018-04-29T05:26:52.039Z,100846.02
2018-04-29T05:29:17.855Z,100852.50
2018-04-29T05:31:43.607Z,100845.38
2018-04-29T05:34:09.374Z,100855.29
2018-04-29T05:36:35.500Z,100863.00
2018-04-29T05:39:01.267Z,100873.33
2018-04-29T05:41:27.032Z,100875.38
2018-04-29T05:43:52.815Z,100871.19
2018-04-29T05:46:18.580Z,100872.02
2018-04-29T05:48:44.332Z,100868.63
2018-04-29T05:51:10.099Z,100877.87
2018-04-29T05:53:35.848Z,100883.52
2018-04-29T05:56:01.755Z,100880.66
2018-04-29T05:58:27.514Z,100873.19
2018-04-29T06:00:53.280Z,100872.05
2018-04-29T06:03:19.024Z,100876.39
2018-04-29T06:05:44.787Z,100870.02
2018-04-29T06:08:10.524Z,100872.99
2018-04-29T06:10:36.269Z,100874.29
2018-04-29T06:13:02.056Z,100877.77
2018-04-29T06:15:27.890Z,100878.66
2018-04-29T06:17:53.672Z,100872.16
2018-04-29T06:20:19.524Z,100871.42
2018-04-29T06:22:55.125Z,100876.34
2018-04-29T06:25:21.967Z,100879.52
2018-04-29T06:27:47.719Z,100870.23
2018-04-29T06:30:13.499Z,100876.63
2018-04-29T06:32:39.263Z,100867.19
2018-04-29T06:35:05.048Z,100871.09
2018-04-29T06:37:30.842Z,100880.41
2018-04-29T06:39:56.592Z,100888.37
2018-04-29T06:42:22.366Z,100881.17
2018-04-29T06:44:48.178Z,100880.44
2018-04-29T06:47:13.949Z,100876.28
2018-04-29T06:49:39.712Z,100869.27
2018-04-29T06:52:05.483Z,100870.09
2018-04-29T06:54:31.248Z,100873.34
2018-04-29T06:56:57.361Z,100877.13
2018-04-29T06:59:23.108Z,100877.79
2018-04-29T07:01:49.158Z,100875.86
2018-04-29T07:04:14.919Z,100866.95
2018-04-29T07:06:40.744Z,100866.97
2018-04-29T07:09:06.479Z,100875.27
2018-04-29T07:11:32.260Z,100883.73
2018-04-29T07:13:58.005Z,100882.98
2018-04-29T07:16:23.787Z,100886.62
2018-04-29T07:18:49.596Z,100879.69
2018-04-29T07:21:15.376Z,100883.72
2018-04-29T07:23:41.123Z,100886.77
2018-04-29T07:26:06.929Z,100882.95
2018-04-29T07:28:32.660Z,100885.59
2018-04-29T07:30:58.446Z,100879.70
2018-04-29T07:33:24.188Z,100876.83
2018-04-29T07:35:50.010Z,100879.81
2018-04-29T07:38:15.976Z,100877.13
2018-04-29T07:40:41.729Z,100879.01
2018-04-29T07:43:07.519Z,100870.15
2018-04-29T07:45:33.284Z,100859.81
2018-04-29T07:47:59.049Z,100852.09
2018-04-29T07:50:24.876Z,100849.48
2018-04-29T07:52:50.648Z,100838.89
2018-04-29T07:55:16.411Z,100837.86
2018-04-29T07:57:42.213Z,100833.34
2018-04-29T08:00:08.003Z,100841.44
2018-04-29T08:02:33.775Z,100844.31
2018-04-29T08:04:59.528Z,100835.92
2018-04-29T08:07:25.322Z,100836.98
2018-04-29T08:09:51.067Z,100837.31
2018-04-29T08:12:16.877Z,100831.87
2018-04-29T08:14:42.653Z,100835.58
2018-04-29T08:17:08.583Z,100836.34
2018-04-29T08:19:34.344Z,100834.75
2018-04-29T08:22:00.130Z,100835.58
2018-04-29T08:24:25.895Z,100849.44
2018-04-29T08:26:51.667Z,100840.13
2018-04-29T08:29:17.424Z,100837.86
2018-04-29T08:31:43.203Z,100833.61
2018-04-29T08:34:08.972Z,100837.63
2018-04-29T08:36:34.757Z,100827.17
2018-04-29T08:39:00.529Z,100830.16
2018-04-29T08:41:26.296Z,100842.00
2018-04-29T08:43:52.065Z,100843.94
2018-04-29T08:46:17.824Z,100845.59
2018-04-29T08:48:43.743Z,100850.39
2018-04-29T08:51:09.514Z,100851.80
2018-04-29T08:53:35.288Z,100846.23
2018-04-29T08:56:07.939Z,100849.77
2018-04-29T08:58:33.672Z,100850.33
2018-04-29T09:00:59.423Z,100839.63
2018-04-29T09:03:25.361Z,100829.88
2018-04-29T09:05:51.176Z,100832.08
2018-04-29T09:08:16.971Z,100836.73
2018-04-29T09:10:42.731Z,100836.76
2018-04-29T09:13:08.499Z,100838.85
2018-04-29T09:15:34.281Z,100843.15
2018-04-29T09:18:00.059Z,100851.82
2018-04-29T09:20:25.819Z,100840.56
2018-04-29T09:22:51.611Z,100843.56
2018-04-29T09:25:17.351Z,100843.98
2018-04-29T09:27:43.131Z,100837.80
2018-04-29T09:30:08.887Z,100833.75
2018-04-29T09:32:34.662Z,100818.23
2018-04-29T09:35:00.423Z,100828.44
2018-04-29T09:37:26.215Z,100829.23
2018-04-29T09:39:51.959Z,100824.09
2018-04-29T09:42:17.753Z,100820.87
2018-04-29T09:44:43.531Z,100820.95
2018-04-29T09:47:09.303Z,100817.23
2018-04-29T09:49:35.099Z,100819.02
2018-04-29T09:52:00.884Z,100824.72
2018-04-29T09:54:26.647Z,100822.27
2018-04-29T09:56:52.407Z,100823.55
2018-04-29T09:59:18.194Z,100814.67
2018-04-29T10:01:50.215Z,100805.06
2018-04-29T10:04:16.295Z,100807.66
2018-04-29T10:06:42.068Z,100799.13
2018-04-29T10:09:07.855Z,100803.73
2018-04-29T10:11:33.613Z,100803.89
2018-04-29T10:13:59.426Z,100801.77
2018-04-29T10:16:25.315Z,100807.55
2018-04-29T10:18:51.103Z,100806.64
2018-04-29T10:21:16.927Z,100800.27
2018-04-29T10:23:42.803Z,100796.84
2018-04-29T10:26:08.570Z,100794.72
2018-04-29T10:28:34.364Z,100799.73
2018-04-29T10:31:00.116Z,100795.33
2018-04-29T10:33:25.914Z,100783.02
2018-04-29T10:35:51.656Z,100783.02
2018-04-29T10:38:17.439Z,100777.17
2018-04-29T10:40:43.498Z,100785.73
2018-04-29T10:43:09.282Z,100783.16
2018-04-29T10:45:35.747Z,100782.80
2018-04-29T10:48:01.520Z,100784.31
2018-04-29T10:50:27.309Z,100792.91
2018-04-29T10:52:53.084Z,100778.78
2018-04-29T10:55:18.883Z,100772.71
2018-04-29T10:57:44.630Z,100772.00
2018-04-29T11:00:10.763Z,100774.63
2018-04-29T11:02:36.569Z,100768.42
2018-04-29T11:05:02.373Z,100754.22
2018-04-29T11:07:28.112Z,100752.25
2018-04-29T11:09:53.906Z,100745.62
2018-04-29T11:12:19.648Z,100745.52
2018-04-29T11:14:45.488Z,100742.81
2018-04-29T11:17:11.244Z,100747.73
2018-04-29T11:19:36.998Z,100752.13
2018-04-29T11:22:02.822Z,100747.64
2018-04-29T11:24:28.596Z,100747.12
2018-04-29T11:26:54.362Z,100736.96
2018-04-29T11:29:20.173Z,100729.27
2018-04-29T11:31:45.964Z,100738.25
2018-04-29T11:34:11.728Z,100727.69
2018-04-29T11:36:37.520Z,100717.86
2018-04-29T11:39:03.304Z,100723.91
2018-04-29T11:41:29.089Z,100728.03
2018-04-29T11:43:54.863Z,100729.98
2018-04-29T11:46:20.628Z,100729.14
2018-04-29T11:48:46.398Z,100729.25
2018-04-29T11:51:12.351Z,100726.48
2018-04-29T11:53:38.132Z,100725.47
2018-04-29T11:56:03.904Z,100734.58
2018-04-29T11:58:29.720Z,100725.97
2018-04-29T12:00:55.507Z,100716.00
2018-04-29T12:03:21.260Z,100709.56
2018-04-29T12:05:47.050Z,100701.13
2018-04-29T12:08:12.811Z,100705.05
2018-04-29T12:10:38.647Z,100705.05
2018-04-29T12:13:04.419Z,100693.39
2018-04-29T12:15:30.199Z,100694.03
2018-04-29T12:17:55.951Z,100678.92
2018-04-29T12:20:21.718Z,100679.92
2018-04-29T12:22:47.485Z,100676.10
2018-04-29T12:25:13.263Z,100676.80
2018-04-29T12:27:39.012Z,100673.55
2018-04-29T12:30:04.807Z,100671.21
2018-04-29T12:32:30.556Z,100664.78
2018-04-29T12:34:56.327Z,100656.25
2018-04-29T12:37:22.092Z,100657.37
2018-04-29T12:39:47.926Z,100644.28
2018-04-29T12:42:13.663Z,100636.48
2018-04-29T12:44:39.448Z,100625.36
2018-04-29T12:47:05.201Z,100627.19
2018-04-29T12:49:30.983Z,100620.86
2018-04-29T12:51:56.827Z,100605.89
2018-04-29T12:54:22.594Z,100601.64
2018-04-29T12:56:48.399Z,100609.45
2018-04-29T12:59:14.150Z,100617.89
2018-04-29T13:01:39.966Z,100614.19
2018-04-29T13:04:05.720Z,100609.38
2018-04-29T13:06:31.511Z,100612.66
2018-04-29T13:08:57.253Z,100607.02
2018-04-29T13:11:23.023Z,100603.37
2018-04-29T13:13:48.803Z,100591.69
2018-04-29T13:16:14.583Z,100588.69
2018-04-29T13:18:40.367Z,100581.67
2018-04-29T13:21:06.147Z,100585.59
2018-04-29T13:23:31.933Z,100590.77
2018-04-29T13:25:57.759Z,100585.77
2018-04-29T13:28:23.495Z,100578.09
2018-04-29T13:30:49.288Z,100577.83
2018-04-29T13:33:15.068Z,100577.00
2018-04-29T13:35:40.871Z,100588.70
2018-04-29T13:38:06.625Z,100586.81
2018-04-29T13:40:32.389Z,100580.77
2018-04-29T13:42:58.177Z,100574.79
2018-04-29T13:45:23.939Z,100564.53
2018-04-29T13:47:49.697Z,100538.73
2018-04-29T13:50:15.464Z,100530.95
2018-04-29T13:52:41.556Z,100534.41
2018-04-29T13:55:07.357Z,100540.09
2018-04-29T13:57:33.175Z,100535.39
2018-04-29T13:59:58.941Z,100529.88
2018-04-29T14:02:24.711Z,100524.54
2018-04-29T14:04:50.784Z,100516.23
2018-04-29T14:07:16.566Z,100519.86
2018-04-29T14:09:42.363Z,100517.33
2018-04-29T14:12:08.124Z,100510.15
2018-04-29T14:14:33.895Z,100502.09
2018-04-29T14:16:59.666Z,100497.36
2018-04-29T14:19:25.440Z,100484.78
2018-04-29T14:21:51.233Z,100487.04
2018-04-29T14:24:17.004Z,100476.63
2018-04-29T14:26:42.963Z,100476.63
2018-04-29T14:29:08.875Z,100467.89
2018-04-29T14:31:34.668Z,100466.58
2018-04-29T14:34:00.443Z,100457.62
2018-04-29T14:36:26.210Z,100452.59
2018-04-29T14:38:52.020Z,100448.03
2018-04-29T14:41:17.783Z,100445.77
2018-04-29T14:43:43.560Z,100445.82
2018-04-29T14:46:09.339Z,100452.25
2018-04-29T14:48:35.096Z,100446.45
2018-04-29T14:51:00.854Z,100430.69
2018-04-29T14:53:26.639Z,100438.06
2018-04-29T14:55:52.469Z,100437.64
2018-04-29T14:58:18.246Z,100436.92
2018-04-29T15:00:44.020Z,100441.19
2018-04-29T15:03:09.859Z,100441.51
2018-04-29T15:05:35.619Z,100431.20
2018-04-29T15:08:01.632Z,100434.42
2018-04-29T15:10:27.413Z,100439.78
2018-04-29T15:12:53.184Z,100434.67
2018-04-29T15:15:18.956Z,100437.44
2018-04-29T15:17:44.741Z,100430.27
2018-04-29T15:20:10.529Z,100428.95
2018-04-29T15:22:36.324Z,100423.33
2018-04-29T15:25:02.080Z,100425.06
2018-04-29T15:27:27.936Z,100415.00
2018-04-29T15:29:53.773Z,100415.30
2018-04-29T15:32:19.533Z,100414.91
2018-04-29T15:34:45.295Z,100407.73
2018-04-29T15:37:11.065Z,100399.13
2018-04-29T15:39:36.831Z,100410.18
2018-04-29T15:42:02.605Z,100410.81
2018-04-29T15:44:28.528Z,100412.56
2018-04-29T15:46:54.272Z,100409.88
2018-04-29T15:49:20.039Z,100410.42
2018-04-29T15:51:45.815Z,100416.77
2018-04-29T15:54:11.588Z,100409.14
2018-04-29T15:56:37.347Z,100413.85
2018-04-29T15:59:03.134Z,100414.87
2018-04-29T16:01:28.887Z,100414.27
2018-04-29T16:03:54.719Z,100413.16
2018-04-29T16:06:20.475Z,100405.48
2018-04-29T16:08:46.239Z,100395.86
2018-04-29T16:11:12.004Z,100387.77
2018-04-29T16:13:37.871Z,100387.75
2018-04-29T16:16:03.675Z,100396.94
2018-04-29T16:18:29.459Z,100398.11
2018-04-29T16:20:55.208Z,100403.34
2018-04-29T16:23:21.079Z,100416.16
2018-04-29T16:25:46.866Z,100417.98
2018-04-29T16:28:12.659Z,100416.77
2018-04-29T16:30:38.407Z,100409.76
2018-04-29T16:33:04.178Z,100407.80
2018-04-29T16:35:29.968Z,100414.06
2018-04-29T16:37:55.972Z,100409.28
2018-04-29T16:40:21.751Z,100419.54
2018-04-29T16:42:47.515Z,100411.52
2018-04-29T16:45:13.336Z,100413.45
2018-04-29T16:47:39.080Z,100413.75
2018-04-29T16:50:04.864Z,100411.81
2018-04-29T16:52:30.676Z,100407.08
2018-04-29T16:54:56.455Z,100405.95
2018-04-29T16:57:22.221Z,100393.55
2018-04-29T16:59:48.009Z,100384.37
2018-04-29T17:02:13.743Z,100377.92
2018-04-29T17:04:39.534Z,100371.56
2018-04-29T17:07:05.283Z,100355.59
2018-04-29T17:09:31.141Z,100351.70
2018-04-29T17:11:56.824Z,100336.13
2018-04-29T17:14:22.615Z,100330.39
2018-04-29T17:16:48.433Z,100318.83
2018-04-29T17:19:14.217Z,100325.66
2018-04-29T17:21:39.989Z,100321.94
2018-04-29T17:24:05.820Z,100326.48
2018-04-29T17:26:31.564Z,100326.23
2018-04-29T17:28:57.428Z,100326.10
2018-04-29T17:31:23.187Z,100320.57
2018-04-29T17:33:48.955Z,100319.33
2018-04-29T17:36:14.722Z,100316.03
2018-04-29T17:38:40.471Z,100310.88
2018-04-29T17:41:06.223Z,100316.02
2018-04-29T17:43:32.007Z,100312.23
2018-04-29T17:45:57.775Z,100311.70
2018-04-29T17:48:23.730Z,100312.71
2018-04-29T17:50:49.508Z,100310.44
2018-04-29T17:53:15.424Z,100305.86
2018-04-29T17:55:41.194Z,100309.44
2018-04-29T17:58:07.021Z,100307.74
2018-04-29T18:00:32.811Z,100312.21
2018-04-29T18:02:58.582Z,100315.90
2018-04-29T18:05:24.359Z,100306.75
2018-04-29T18:07:50.125Z,100306.58
2018-04-29T18:10:15.919Z,100300.06
2018-04-29T18:12:41.687Z,100306.52
2018-04-29T18:15:07.623Z,100302.98
2018-04-29T18:17:33.403Z,100294.33
2018-04-29T18:19:59.139Z,100294.85
2018-04-29T18:22:24.931Z,100290.09
2018-04-29T18:24:50.750Z,100308.09
2018-04-29T18:27:16.499Z,100311.05
2018-04-29T18:29:42.298Z,100320.61
2018-04-29T18:32:08.071Z,100314.34
2018-04-29T18:34:33.844Z,100324.03
2018-04-29T18:36:59.667Z,100324.09
2018-04-29T18:39:25.475Z,100321.17
2018-04-29T18:41:51.244Z,100321.62
2018-04-29T18:44:17.016Z,100310.26
2018-04-29T18:46:42.835Z,100305.52
2018-04-29T18:49:08.628Z,100309.22
2018-04-29T18:51:34.468Z,100316.30
2018-04-29T18:54:00.384Z,100324.09
2018-04-29T18:56:26.317Z,100323.25
2018-04-29T18:58:52.068Z,100322.20
2018-04-29T19:01:17.876Z,100324.09
2018-04-29T19:03:43.671Z,100330.55
2018-04-29T19:06:09.500Z,100327.20
2018-04-29T19:08:35.276Z,100318.10
2018-04-29T19:11:01.051Z,100323.74
2018-04-29T19:13:26.811Z,100321.43
2018-04-29T19:15:52.592Z,100314.41
2018-04-29T19:18:18.365Z,100319.47
2018-04-29T19:20:44.208Z,100318.91
2018-04-29T19:23:09.930Z,100307.37
2018-04-29T19:25:35.732Z,100304.56
2018-04-29T19:28:01.507Z,100313.45
2018-04-29T19:30:27.282Z,100307.21
2018-04-29T19:32:53.094Z,100312.41
2018-04-29T19:35:18.871Z,100306.11
2018-04-29T19:37:44.649Z,100306.01
2018-04-29T19:40:10.433Z,100300.34
2018-04-29T19:42:36.277Z,100295.45
2018-04-29T19:45:02.056Z,100281.27
2018-04-29T19:47:27.840Z,100283.83
2018-04-29T19:49:53.614Z,100278.52
2018-04-29T19:52:19.395Z,100271.28
2018-04-29T19:54:45.160Z,100270.45
2018-04-29T19:57:11.193Z,100275.39
2018-04-29T19:59:36.999Z,100273.02
2018-04-29T20:02:02.819Z,100271.09
2018-04-29T20:04:28.607Z,100271.80
2018-04-29T20:06:54.360Z,100266.15
2018-04-29T20:09:20.147Z,100265.17
2018-04-29T20:11:45.903Z,100264.19
2018-04-29T20:14:11.679Z,100256.53
2018-04-29T20:16:37.483Z,100254.50
2018-04-29T20:19:03.246Z,100251.40
2018-04-29T20:21:29.026Z,100254.53
2018-04-29T20:23:54.926Z,100255.05
2018-04-29T20:26:20.619Z,100246.35
2018-04-29T20:28:46.372Z,100252.64
2018-04-29T20:31:12.177Z,100247.44
2018-04-29T20:33:37.947Z,100243.25
2018-04-29T20:36:03.695Z,100253.16
2018-04-29T20:38:29.611Z,100240.05
2018-04-29T20:40:55.406Z,100239.33
2018-04-29T20:43:21.188Z,100238.72
2018-04-29T20:45:46.974Z,100227.84
2018-04-29T20:48:12.719Z,100223.95
2018-04-29T20:50:38.507Z,100222.00
2018-04-29T20:53:04.300Z,100223.80
2018-04-29T20:55:30.053Z,100214.00
2018-04-29T20:57:56.164Z,100206.58
2018-04-29T21:00:21.932Z,100200.44
2018-04-29T21:02:47.705Z,100198.21
2018-04-29T21:05:13.720Z,100193.30
2018-04-29T21:07:39.555Z,100191.49
2018-04-29T21:10:05.307Z,100191.30
2018-04-29T21:12:31.075Z,100184.39
2018-04-29T21:14:56.832Z,100183.25
2018-04-29T21:17:22.668Z,100177.16
2018-04-29T21:19:48.396Z,100177.80
2018-04-29T21:22:14.155Z,100177.00
2018-04-29T21:24:40.167Z,100173.38
2018-04-29T21:27:05.959Z,100164.91
2018-04-29T21:29:31.711Z,100162.27
2018-04-29T21:31:57.476Z,100154.95
2018-04-29T21:34:23.246Z,100150.27
2018-04-29T21:36:49.043Z,100152.50
2018-04-29T21:39:14.817Z,100139.91
2018-04-29T21:41:40.579Z,100138.19
2018-04-29T21:44:06.339Z,100139.39
2018-04-29T21:46:32.123Z,100129.30
2018-04-29T21:48:57.888Z,100137.20
2018-04-29T21:51:23.664Z,100139.50
2018-04-29T21:53:49.431Z,100125.78
2018-04-29T21:56:15.432Z,100132.86
2018-04-29T21:58:41.147Z,100130.23
2018-04-29T22:01:06.917Z,100133.27
2018-04-29T22:03:32.700Z,100138.13
2018-04-29T22:05:58.452Z,100127.28
2018-04-29T22:08:24.222Z,100119.12
2018-04-29T22:10:49.987Z,100116.22
2018-04-29T22:13:15.728Z,100113.84
2018-04-29T22:15:41.532Z,100109.55
2018-04-29T22:18:07.288Z,100100.78
2018-04-29T22:20:33.068Z,100094.67
2018-04-29T22:22:58.866Z,100090.39
2018-04-29T22:25:24.631Z,100091.22
2018-04-29T22:27:50.389Z,100081.50
2018-04-29T22:30:16.168Z,100076.65
2018-04-29T22:32:41.964Z,100074.09
2018-04-29T22:35:07.759Z,100076.65
2018-04-29T22:37:33.507Z,100069.98
2018-04-29T22:39:59.243Z,100070.47
2018-04-29T22:42:25.015Z,100070.02
2018-04-29T22:44:56.871Z,100066.63
2018-04-29T22:47:22.643Z,100061.77
2018-04-29T22:49:55.295Z,100065.00
2018-04-29T22:52:21.057Z,100057.51
2018-04-29T22:54:46.827Z,100061.95
2018-04-29T22:57:12.595Z,100062.89
2018-04-29T22:59:38.652Z,100054.91
2018-04-29T23:02:04.420Z,100057.54
2018-04-29T23:04:30.243Z,100054.67
2018-04-29T23:06:56.004Z,100058.10
2018-04-29T23:09:21.768Z,100053.84
2018-04-29T23:11:47.562Z,100045.84
2018-04-29T23:14:13.323Z,100054.75
2018-04-29T23:16:39.075Z,100054.18
2018-04-29T23:19:04.835Z,100054.67
2018-04-29T23:21:30.854Z,100039.54
2018-04-29T23:23:56.667Z,100039.47
2018-04-29T23:26:22.489Z,100031.22
2018-04-29T23:28:48.256Z,100022.76
2018-04-29T23:31:14.024Z,100027.27
2018-04-29T23:33:39.772Z,100025.72
2018-04-29T23:36:05.551Z,100018.73
2018-04-29T23:38:31.292Z,100002.20
2018-04-29T23:40:57.060Z,100010.00
2018-04-29T23:43:22.817Z,100007.97
2018-04-29T23:45:48.619Z,99997.02
2018-04-29T23:48:14.372Z,99994.13
2018-04-29T23:50:40.162Z,99994.95
2018-04-29T23:53:05.980Z,99989.01
2018-04-29T23:55:31.920Z,99978.63
2018-04-29T23:57:57.697Z,99974.27
